Time;durP1;ratioP1;P1;durP2;ratioP2;P2;SDS_P1;SDS_P2;PMS_P1;PMS_P2;Temp;Humidity;BMP_temperature;BMP_pressure;BME280_temperature;BME280_humidity;BME280_pressure;Samples;Min_cycle;Max_cycle;Signal;HPM_P1;HPM_P2
2023/07/25 00:01:26;;;;;;;19.15;10.82;;;;;;;-140.66;100.00;55571.53;5100189;28;20019;-74
2023/07/25 00:04:12;;;;;;;17.08;10.60;;;;;;;-140.66;100.00;55571.53;5113876;28;20428;-75
2023/07/25 00:06:57;;;;;;;18.42;11.43;;;;;;;-140.66;100.00;55571.53;5114310;28;20039;-74
2023/07/25 00:09:43;;;;;;;17.67;10.48;;;;;;;-140.66;100.00;55571.53;5117408;28;20089;-75
2023/07/25 00:12:29;;;;;;;16.08;10.32;;;;;;;-140.66;100.00;55571.53;5102962;28;20077;-74
2023/07/25 00:15:14;;;;;;;17.27;10.15;;;;;;;-140.66;100.00;55571.53;5116627;28;20051;-75
2023/07/25 00:18:00;;;;;;;15.13;10.40;;;;;;;-140.66;100.00;55571.53;5118324;28;20059;-75
2023/07/25 00:20:46;;;;;;;17.05;10.18;;;;;;;-140.66;100.00;55571.53;5103556;28;20379;-75
2023/07/25 00:23:31;;;;;;;17.00;10.23;;;;;;;-140.66;100.00;55571.53;5119064;28;20438;-74
2023/07/25 00:26:17;;;;;;;21.13;10.27;;;;;;;-140.66;100.00;55571.53;5117788;28;20028;-74
2023/07/25 00:29:04;;;;;;;16.73;10.25;;;;;;;-140.66;100.00;55571.53;5118873;28;20093;-74
2023/07/25 00:31:50;;;;;;;13.57;9.40;;;;;;;-140.66;100.00;55571.53;5118358;28;20042;-75
2023/07/25 00:34:35;;;;;;;15.55;9.73;;;;;;;-140.66;100.00;55571.53;5118231;28;20039;-75
2023/07/25 00:37:21;;;;;;;15.15;10.00;;;;;;;-140.66;100.00;55571.53;5104008;28;20024;-74
2023/07/25 00:40:07;;;;;;;14.23;9.00;;;;;;;-140.66;100.00;55571.53;5104673;28;20024;-74
2023/07/25 00:42:54;;;;;;;12.45;9.20;;;;;;;-140.66;100.00;55571.53;5120644;28;20081;-73
2023/07/25 00:45:40;;;;;;;16.40;8.93;;;;;;;-140.66;100.00;55571.53;5118814;28;20104;-76
2023/07/25 00:48:27;;;;;;;16.77;9.40;;;;;;;-140.66;100.00;55571.53;5118171;28;20027;-74
2023/07/25 00:51:13;;;;;;;15.57;9.23;;;;;;;-140.66;100.00;55571.53;5104924;28;20455;-75
2023/07/25 00:53:59;;;;;;;14.40;9.77;;;;;;;-140.66;100.00;55571.53;5090875;28;20023;-75
2023/07/25 00:56:45;;;;;;;15.30;10.07;;;;;;;-140.66;100.00;55571.53;5118942;28;20019;-75
2023/07/25 00:59:30;;;;;;;15.18;10.45;;;;;;;-140.66;100.00;55571.53;5117046;28;20110;-75
2023/07/25 01:02:17;;;;;;;15.05;9.20;;;;;;;-140.66;100.00;55571.53;5117297;28;20077;-74
2023/07/25 01:05:03;;;;;;;14.63;9.43;;;;;;;-140.66;100.00;55571.53;5118113;28;20085;-74
2023/07/25 01:07:49;;;;;;;14.35;9.48;;;;;;;-140.66;100.00;55571.53;5102810;28;20038;-74
2023/07/25 01:10:38;;;;;;;14.02;9.02;;;;;;;-140.66;100.00;55571.53;5117397;28;20020;-74
2023/07/25 01:13:24;;;;;;;12.65;8.95;;;;;;;-140.66;100.00;55571.53;5116862;28;20020;-74
2023/07/25 01:16:14;;;;;;;12.00;8.77;;;;;;;-140.66;100.00;55571.53;5116863;28;20387;-73
2023/07/25 01:19:00;;;;;;;14.65;9.32;;;;;;;-140.66;100.00;55571.53;5114716;28;20031;-74
2023/07/25 01:21:46;;;;;;;15.50;9.60;;;;;;;-140.66;100.00;55571.53;5096517;28;20132;-75
2023/07/25 01:24:32;;;;;;;13.45;9.32;;;;;;;-140.66;100.00;55571.53;5096052;28;20020;-74
2023/07/25 01:27:17;;;;;;;15.07;9.18;;;;;;;-140.66;100.00;55571.53;5100880;28;20035;-72
2023/07/25 01:30:04;;;;;;;13.07;9.00;;;;;;;-140.66;100.00;55571.53;5100826;28;20423;-74
2023/07/25 01:32:51;;;;;;;14.07;8.75;;;;;;;-140.66;100.00;55571.53;5097380;28;20062;-74
2023/07/25 01:35:36;;;;;;;13.85;8.82;;;;;;;-140.66;100.00;55571.53;5097397;28;20039;-74
2023/07/25 01:38:22;;;;;;;12.23;8.55;;;;;;;-140.66;100.00;55571.53;5097174;28;20333;-74
2023/07/25 01:41:08;;;;;;;13.25;8.88;;;;;;;-140.66;100.00;55571.53;5080960;28;20032;-75
2023/07/25 01:43:54;;;;;;;14.55;9.18;;;;;;;-140.66;100.00;55571.53;5095517;28;20023;-74
2023/07/25 01:46:43;;;;;;;12.10;8.25;;;;;;;-140.66;100.00;55571.53;5096019;28;20039;-74
2023/07/25 01:49:29;;;;;;;13.18;8.70;;;;;;;-140.66;100.00;55571.53;5095731;28;20036;-75
2023/07/25 01:52:14;;;;;;;13.43;9.43;;;;;;;-140.66;100.00;55571.53;5096113;28;20020;-75
2023/07/25 01:55:00;;;;;;;11.88;8.55;;;;;;;-140.66;100.00;55571.53;5096336;28;20065;-73
2023/07/25 01:57:46;;;;;;;13.15;8.70;;;;;;;-140.66;100.00;55571.53;5084274;28;20468;-75
2023/07/25 02:00:32;;;;;;;15.40;9.25;;;;;;;-140.66;100.00;55571.53;5096250;28;20448;-74
2023/07/25 02:03:18;;;;;;;13.00;8.88;;;;;;;-140.66;100.00;55571.53;5079971;28;20053;-75
2023/07/25 02:06:04;;;;;;;13.70;9.02;;;;;;;-140.66;100.00;55571.53;5096142;28;20020;-75
2023/07/25 02:08:49;;;;;;;14.23;9.02;;;;;;;-140.66;100.00;55571.53;5095639;28;20432;-75
2023/07/25 02:11:35;;;;;;;13.52;9.02;;;;;;;-140.66;100.00;55571.53;5081080;28;20059;-75
2023/07/25 02:14:22;;;;;;;12.70;8.90;;;;;;;-140.66;100.00;55571.53;5095636;28;20440;-75
2023/07/25 02:17:08;;;;;;;14.75;9.75;;;;;;;-140.66;100.00;55571.53;5095350;28;20099;-75
2023/07/25 02:19:53;;;;;;;12.90;9.07;;;;;;;-140.66;100.00;55571.53;5099780;28;20044;-74
2023/07/25 02:22:39;;;;;;;13.05;8.48;;;;;;;-140.66;100.00;55571.53;5101122;28;20057;-74
2023/07/25 02:25:26;;;;;;;12.98;9.13;;;;;;;-140.66;100.00;55571.53;5100404;28;20043;-75
2023/07/25 02:28:11;;;;;;;14.52;8.52;;;;;;;-140.66;100.00;55571.53;5116226;28;20110;-74
2023/07/25 02:30:57;;;;;;;13.68;8.90;;;;;;;-140.66;100.00;55571.53;5100350;28;20502;-75
2023/07/25 02:33:43;;;;;;;15.27;9.05;;;;;;;-140.66;100.00;55571.53;5100704;28;20028;-74
2023/07/25 02:36:29;;;;;;;15.75;8.98;;;;;;;-140.66;100.00;55571.53;5100500;28;20090;-73
2023/07/25 02:39:14;;;;;;;14.75;8.80;;;;;;;-140.66;100.00;55571.53;5114993;28;20016;-75
2023/07/25 02:42:00;;;;;;;12.70;8.45;;;;;;;-140.66;100.00;55571.53;5115046;28;20514;-74
2023/07/25 02:44:46;;;;;;;13.70;9.10;;;;;;;-140.66;100.00;55571.53;5101280;28;20435;-74
2023/07/25 02:47:32;;;;;;;13.48;9.20;;;;;;;-140.66;100.00;55571.53;5100673;28;20023;-75
2023/07/25 02:50:17;;;;;;;14.35;8.90;;;;;;;-140.66;100.00;55571.53;5100092;28;20028;-74
2023/07/25 02:53:03;;;;;;;17.40;9.60;;;;;;;-140.66;100.00;55571.53;5115949;28;20096;-75
2023/07/25 02:55:49;;;;;;;14.88;9.10;;;;;;;-140.66;100.00;55571.53;5100880;28;20028;-74
2023/07/25 02:58:34;;;;;;;15.35;8.98;;;;;;;-140.66;100.00;55571.53;5115123;28;20370;-74
2023/07/25 03:01:20;;;;;;;14.63;9.55;;;;;;;-140.66;100.00;55571.53;5100787;28;20032;-75
2023/07/25 03:04:06;;;;;;;17.38;9.40;;;;;;;-140.66;100.00;55571.53;5115109;28;20475;-74
2023/07/25 03:06:52;;;;;;;15.80;9.05;;;;;;;-140.66;100.00;55571.53;5114967;28;20035;-73
2023/07/25 03:09:40;;;;;;;12.93;8.75;;;;;;;-140.66;100.00;55571.53;5115394;28;20114;-74
2023/07/25 03:12:25;;;;;;;16.95;9.35;;;;;;;-140.66;100.00;55571.53;5115172;28;20031;-74
2023/07/25 03:15:11;;;;;;;13.00;9.07;;;;;;;-140.66;100.00;55571.53;5114646;28;20500;-74
2023/07/25 03:17:57;;;;;;;15.10;9.25;;;;;;;-140.66;100.00;55571.53;5114437;28;20047;-74
2023/07/25 03:20:43;;;;;;;13.15;9.32;;;;;;;-140.66;100.00;55571.53;5114144;28;20084;-74
2023/07/25 03:23:29;;;;;;;15.73;9.65;;;;;;;-140.66;100.00;55571.53;5114479;28;20027;-74
2023/07/25 03:26:15;;;;;;;15.90;9.50;;;;;;;-140.66;100.00;55571.53;5100197;28;20337;-74
2023/07/25 03:29:01;;;;;;;21.00;9.82;;;;;;;-140.66;100.00;55571.53;5100455;28;20019;-74
2023/07/25 03:31:46;;;;;;;24.13;10.00;;;;;;;-140.66;100.00;55571.53;5099855;28;20034;-74
2023/07/25 03:34:32;;;;;;;26.52;9.60;;;;;;;-140.66;100.00;55571.53;5113864;28;20107;-74
2023/07/25 03:37:18;;;;;;;17.60;9.43;;;;;;;-140.66;100.00;55571.53;5114687;28;20039;-74
2023/07/25 03:40:05;;;;;;;14.60;8.70;;;;;;;-140.66;100.00;55571.53;5113538;28;20042;-74
2023/07/25 03:42:50;;;;;;;14.57;9.60;;;;;;;-140.66;100.00;55571.53;5118654;28;20065;-75
2023/07/25 03:45:36;;;;;;;14.05;9.48;;;;;;;-140.66;100.00;55571.53;5118314;28;20038;-74
2023/07/25 03:48:22;;;;;;;17.70;9.77;;;;;;;-140.66;100.00;55571.53;5119859;28;20023;-74
2023/07/25 03:51:07;;;;;;;20.15;10.15;;;;;;;-140.66;100.00;55571.53;5118186;28;20049;-74
2023/07/25 03:53:53;;;;;;;26.13;11.43;;;;;;;-140.66;100.00;55571.53;5117050;28;20042;-74
2023/07/25 03:56:39;;;;;;;20.90;10.98;;;;;;;-140.66;100.00;55571.53;5118844;28;20073;-73
2023/07/25 03:59:25;;;;;;;30.83;11.23;;;;;;;-140.66;100.00;55571.53;5103220;28;20028;-74
2023/07/25 04:02:11;;;;;;;31.38;10.88;;;;;;;-140.66;100.00;55571.53;5104550;28;20103;-74
2023/07/25 04:04:56;;;;;;;22.95;10.07;;;;;;;-140.66;100.00;55571.53;5103101;28;20340;-74
2023/07/25 04:07:42;;;;;;;27.88;11.25;;;;;;;-140.66;100.00;55571.53;5118229;28;20104;-74
2023/07/25 04:10:28;;;;;;;17.45;9.98;;;;;;;-140.66;100.00;55571.53;5118149;28;20031;-73
2023/07/25 04:13:14;;;;;;;17.98;10.18;;;;;;;-140.66;100.00;55571.53;5118453;28;20016;-74
2023/07/25 04:15:59;;;;;;;15.35;9.68;;;;;;;-140.66;100.00;55571.53;5116721;28;20444;-74
2023/07/25 04:18:45;;;;;;;15.05;9.52;;;;;;;-140.66;100.00;55571.53;5118123;28;20059;-73
2023/07/25 04:21:31;;;;;;;16.00;9.50;;;;;;;-140.66;100.00;55571.53;5117582;28;20446;-74
2023/07/25 04:24:16;;;;;;;13.10;9.57;;;;;;;-140.66;100.00;55571.53;5118215;28;20096;-74
2023/07/25 04:27:02;;;;;;;18.80;10.70;;;;;;;-140.66;100.00;55571.53;5118187;28;20031;-75
2023/07/25 04:29:48;;;;;;;14.68;10.30;;;;;;;-140.66;100.00;55571.53;5103386;28;20097;-76
2023/07/25 04:32:34;;;;;;;15.15;10.10;;;;;;;-140.66;100.00;55571.53;5118857;28;20047;-74
2023/07/25 04:35:19;;;;;;;19.05;11.25;;;;;;;-140.66;100.00;55571.53;5118385;28;20098;-75
2023/07/25 04:38:05;;;;;;;17.85;10.75;;;;;;;-140.66;100.00;55571.53;5118289;28;20432;-74
2023/07/25 04:40:51;;;;;;;23.10;11.25;;;;;;;-140.66;100.00;55571.53;5117523;28;20038;-74
2023/07/25 04:43:36;;;;;;;19.05;11.57;;;;;;;-140.66;100.00;55571.53;5117233;28;20027;-75
2023/07/25 04:46:22;;;;;;;23.20;12.40;;;;;;;-140.66;100.00;55571.53;5102422;28;20028;-74
2023/07/25 04:49:11;;;;;;;24.38;12.68;;;;;;;-140.66;100.00;55571.53;5116773;28;20051;-74
2023/07/25 04:51:56;;;;;;;17.90;12.05;;;;;;;-140.66;100.00;55571.53;5118236;28;20099;-74
2023/07/25 04:54:42;;;;;;;18.17;11.85;;;;;;;-140.66;100.00;55571.53;5117858;28;20446;-74
2023/07/25 04:57:28;;;;;;;17.52;11.93;;;;;;;-140.66;100.00;55571.53;5123344;28;20435;-74
2023/07/25 05:00:14;;;;;;;16.77;11.25;;;;;;;-140.66;100.00;55571.53;5118537;28;20359;-75
2023/07/25 05:02:59;;;;;;;19.50;11.20;;;;;;;-140.66;100.00;55571.53;5104179;28;20046;-74
2023/07/25 05:05:45;;;;;;;16.38;10.50;;;;;;;-140.66;100.00;55571.53;5117876;28;20024;-75
2023/07/25 05:08:31;;;;;;;16.55;10.23;;;;;;;-140.66;100.00;55571.53;5117253;28;20023;-74
2023/07/25 05:11:16;;;;;;;18.75;10.43;;;;;;;-140.66;100.00;55571.53;5117169;28;20016;-74
2023/07/25 05:14:02;;;;;;;20.02;10.98;;;;;;;-140.66;100.00;55571.53;5117065;28;20024;-74
2023/07/25 05:16:48;;;;;;;21.63;10.80;;;;;;;-140.66;100.00;55571.53;5117477;28;20028;-74
2023/07/25 05:19:34;;;;;;;15.77;10.60;;;;;;;-140.66;100.00;55571.53;5102724;28;20112;-74
2023/07/25 05:22:19;;;;;;;19.48;10.88;;;;;;;-140.66;100.00;55571.53;5125209;28;20031;-73
2023/07/25 05:25:06;;;;;;;19.02;10.88;;;;;;;-140.66;100.00;55571.53;5130934;28;20046;-74
2023/07/25 05:27:51;;;;;;;17.25;10.32;;;;;;;-140.66;100.00;55571.53;5119002;28;20024;-75
2023/07/25 05:30:37;;;;;;;18.73;10.40;;;;;;;-140.66;100.00;55571.53;5116646;28;20028;-75
2023/07/25 05:33:23;;;;;;;15.05;9.95;;;;;;;-140.66;100.00;55571.53;5117288;28;20351;-75
2023/07/25 05:36:09;;;;;;;17.73;10.93;;;;;;;-140.66;100.00;55571.53;5116825;28;20097;-74
2023/07/25 05:38:54;;;;;;;14.93;10.65;;;;;;;-140.66;100.00;55571.53;5117011;28;20059;-75
2023/07/25 05:41:42;;;;;;;16.08;9.93;;;;;;;-140.66;100.00;55571.53;5116393;28;20090;-74
2023/07/25 05:44:29;;;;;;;17.98;10.02;;;;;;;-140.66;100.00;55571.53;5116711;28;20367;-75
2023/07/25 05:47:14;;;;;;;15.20;11.45;;;;;;;-140.66;100.00;55571.53;5101431;28;20020;-74
2023/07/25 05:50:00;;;;;;;18.75;10.77;;;;;;;-140.66;100.00;55571.53;5114927;28;20409;-76
2023/07/25 05:52:46;;;;;;;17.08;10.95;;;;;;;-140.66;100.00;55571.53;5117153;28;20102;-74
2023/07/25 05:55:32;;;;;;;19.85;10.63;;;;;;;-140.66;100.00;55571.53;5102271;28;20111;-75
2023/07/25 05:58:18;;;;;;;18.90;11.02;;;;;;;-140.66;100.00;55571.53;5116611;28;20096;-74
2023/07/25 06:01:04;;;;;;;22.20;10.60;;;;;;;-140.66;100.00;55571.53;5101246;28;20027;-74
2023/07/25 06:03:49;;;;;;;19.85;11.40;;;;;;;-140.66;100.00;55571.53;5100420;28;20114;-75
2023/07/25 06:06:35;;;;;;;17.27;10.27;;;;;;;-140.66;100.00;55571.53;5115775;28;20055;-75
2023/07/25 06:09:21;;;;;;;14.68;9.95;;;;;;;-140.66;100.00;55571.53;5116183;28;20416;-74
2023/07/25 06:12:08;;;;;;;17.58;9.93;;;;;;;-140.66;100.00;55571.53;5116412;28;20039;-75
2023/07/25 06:14:53;;;;;;;19.38;11.15;;;;;;;-140.66;100.00;55571.53;5116312;28;20028;-75
2023/07/25 06:17:39;;;;;;;18.90;11.23;;;;;;;-140.66;100.00;55571.53;5087672;28;20540;-75
2023/07/25 06:20:25;;;;;;;16.88;10.75;;;;;;;-140.66;100.00;55571.53;5116333;28;20470;-75
2023/07/25 06:23:11;;;;;;;19.00;10.40;;;;;;;-140.66;100.00;55571.53;5115750;28;20036;-74
2023/07/25 06:25:58;;;;;;;16.75;11.40;;;;;;;-140.66;100.00;55571.53;5102374;28;20468;-76
2023/07/25 06:28:44;;;;;;;16.27;10.90;;;;;;;-140.66;100.00;55571.53;5116504;28;20023;-75
2023/07/25 06:31:30;;;;;;;20.50;10.75;;;;;;;-140.66;100.00;55571.53;5115160;28;20112;-76
2023/07/25 06:34:16;;;;;;;14.52;10.35;;;;;;;-140.66;100.00;55571.53;5116602;28;20030;-75
2023/07/25 06:37:01;;;;;;;19.30;11.25;;;;;;;-140.66;100.00;55571.53;5101660;28;20023;-78
2023/07/25 06:39:47;;;;;;;18.48;10.65;;;;;;;-140.66;100.00;55571.53;5117871;28;20027;-74
2023/07/25 06:42:33;;;;;;;16.65;10.98;;;;;;;-140.66;100.00;55571.53;5100984;28;20543;-76
2023/07/25 06:45:19;;;;;;;20.50;11.57;;;;;;;-140.66;100.00;55571.53;5102284;28;20027;-74
2023/07/25 06:48:05;;;;;;;18.10;11.73;;;;;;;-140.66;100.00;55571.53;5102064;28;20027;-76
2023/07/25 06:50:51;;;;;;;18.65;11.88;;;;;;;-140.66;100.00;55571.53;5100995;28;20367;-76
2023/07/25 06:53:36;;;;;;;17.73;11.05;;;;;;;-140.66;100.00;55571.53;5117455;28;20551;-75
2023/07/25 06:56:22;;;;;;;19.77;12.25;;;;;;;-140.66;100.00;55571.53;5118005;28;20031;-74
2023/07/25 06:59:08;;;;;;;25.42;12.30;;;;;;;-140.66;100.00;55571.53;5117768;28;20051;-75
2023/07/25 07:01:53;;;;;;;20.70;11.77;;;;;;;-140.66;100.00;55571.53;5105207;28;20115;-76
2023/07/25 07:04:39;;;;;;;20.63;11.90;;;;;;;-140.66;100.00;55571.53;5102655;28;20032;-76
2023/07/25 07:07:25;;;;;;;25.92;12.75;;;;;;;-140.66;100.00;55571.53;5101552;28;20040;-75
2023/07/25 07:10:11;;;;;;;23.23;12.63;;;;;;;-140.66;100.00;55571.53;5101823;28;20023;-74
2023/07/25 07:12:56;;;;;;;25.15;14.88;;;;;;;-140.66;100.00;55571.53;5117310;28;20019;-74
2023/07/25 07:15:45;;;;;;;19.63;12.90;;;;;;;-140.66;100.00;55571.53;5117948;28;20037;-74
2023/07/25 07:18:31;;;;;;;24.90;13.35;;;;;;;-140.66;100.00;55571.53;5120403;28;20336;-73
2023/07/25 07:21:16;;;;;;;28.35;14.38;;;;;;;-140.66;100.00;55571.53;5119423;28;20047;-74
2023/07/25 07:24:02;;;;;;;28.92;13.25;;;;;;;-140.66;100.00;55571.53;5119650;28;20031;-76
2023/07/25 07:26:48;;;;;;;20.13;12.68;;;;;;;-140.66;100.00;55571.53;5119779;28;20035;-75
2023/07/25 07:29:33;;;;;;;22.13;13.43;;;;;;;-140.66;100.00;55571.53;5119120;28;20038;-75
2023/07/25 07:32:19;;;;;;;20.75;13.10;;;;;;;-140.66;100.00;55571.53;5119236;28;20066;-75
2023/07/25 07:35:05;;;;;;;20.08;12.50;;;;;;;-140.66;100.00;55571.53;5118243;28;20023;-74
2023/07/25 07:37:51;;;;;;;17.88;11.90;;;;;;;-140.66;100.00;55571.53;5104449;28;20024;-75
2023/07/25 07:40:37;;;;;;;22.95;13.23;;;;;;;-140.66;100.00;55571.53;5117198;28;20027;-76
2023/07/25 07:43:25;;;;;;;17.77;12.15;;;;;;;-140.66;100.00;55571.53;5120295;28;20028;-76
2023/07/25 07:46:11;;;;;;;19.88;12.43;;;;;;;-140.66;100.00;55571.53;5087520;28;20031;-75
2023/07/25 07:48:58;;;;;;;20.58;11.85;;;;;;;-140.66;100.00;55571.53;5115892;28;20032;-76
2023/07/25 07:51:43;;;;;;;25.20;12.20;;;;;;;-140.66;100.00;55571.53;5114522;28;20023;-76
2023/07/25 07:54:29;;;;;;;22.75;12.77;;;;;;;-140.66;100.00;55571.53;5103392;28;20043;-75
2023/07/25 07:57:15;;;;;;;28.27;12.27;;;;;;;-140.66;100.00;55571.53;5101766;28;20341;-76
2023/07/25 08:00:01;;;;;;;18.80;11.93;;;;;;;-140.66;100.00;55571.53;5116037;28;20028;-74
2023/07/25 08:02:47;;;;;;;25.05;12.68;;;;;;;-140.66;100.00;55571.53;5118809;28;20092;-77
2023/07/25 08:05:33;;;;;;;24.85;12.63;;;;;;;-140.66;100.00;55571.53;5117250;28;20023;-76
2023/07/25 08:08:18;;;;;;;21.08;13.80;;;;;;;-140.66;100.00;55571.53;5116110;28;20032;-76
2023/07/25 08:11:04;;;;;;;24.58;13.80;;;;;;;-140.66;100.00;55571.53;5119530;28;20024;-76
2023/07/25 08:13:50;;;;;;;22.25;12.45;;;;;;;-140.66;100.00;55571.53;5127327;28;20027;-76
2023/07/25 08:16:35;;;;;;;21.52;12.95;;;;;;;-140.66;100.00;55571.53;5128266;28;20055;-75
2023/07/25 08:19:21;;;;;;;26.40;12.50;;;;;;;-140.66;100.00;55571.53;5110509;28;20020;-76
2023/07/25 08:22:10;;;;;;;20.50;12.13;;;;;;;-140.66;100.00;55571.53;5123100;28;20363;-76
2023/07/25 08:24:55;;;;;;;22.10;11.75;;;;;;;-140.66;100.00;55571.53;5119984;28;20078;-76
2023/07/25 08:27:41;;;;;;;19.65;12.00;;;;;;;-140.66;100.00;55571.53;5120876;28;20039;-76
2023/07/25 08:30:27;;;;;;;17.52;11.43;;;;;;;-140.66;100.00;55571.53;5120498;28;20026;-75
2023/07/25 08:33:15;;;;;;;19.40;11.75;;;;;;;-140.66;100.00;55571.53;5121931;28;20027;-75
2023/07/25 08:36:01;;;;;;;16.15;11.57;;;;;;;-140.66;100.00;55571.53;5127199;28;20031;-75
2023/07/25 08:38:47;;;;;;;18.45;12.48;;;;;;;-140.66;100.00;55571.53;5125261;28;20106;-76
2023/07/25 08:41:37;;;;;;;18.38;11.88;;;;;;;-140.66;100.00;55571.53;5118900;28;20039;-75
2023/07/25 08:44:24;;;;;;;19.00;12.10;;;;;;;-140.66;100.00;55571.53;5123759;28;20023;-75
2023/07/25 08:47:20;;;;;;;24.17;12.38;;;;;;;-140.66;100.00;55571.53;5127666;28;20034;-76
2023/07/25 08:50:13;;;;;;;19.83;11.93;;;;;;;-140.66;100.00;55571.53;5131949;28;20023;-76
2023/07/25 08:53:06;;;;;;;19.85;12.15;;;;;;;-140.66;100.00;55571.53;5128782;28;20023;-76
2023/07/25 08:55:53;;;;;;;19.83;11.95;;;;;;;-140.66;100.00;55571.53;5125630;28;20418;-77
2023/07/25 08:58:42;;;;;;;20.40;12.55;;;;;;;-140.66;100.00;55571.53;5123549;28;20020;-77
2023/07/25 09:01:28;;;;;;;21.42;12.35;;;;;;;-140.66;100.00;55571.53;5121896;28;20027;-75
2023/07/25 09:04:14;;;;;;;18.30;11.43;;;;;;;-140.66;100.00;55571.53;5106092;28;20031;-76
2023/07/25 09:07:00;;;;;;;19.35;11.50;;;;;;;-140.66;100.00;55571.53;5126340;28;20079;-76
2023/07/25 09:09:47;;;;;;;18.38;11.63;;;;;;;-140.66;100.00;55571.53;5124801;28;20050;-77
2023/07/25 09:12:32;;;;;;;20.40;11.25;;;;;;;-140.66;100.00;55571.53;5124739;28;20023;-75
2023/07/25 09:15:19;;;;;;;14.63;11.38;;;;;;;-140.66;100.00;55571.53;5124501;28;20019;-76
2023/07/25 09:18:04;;;;;;;18.35;11.82;;;;;;;-140.66;100.00;55571.53;5110032;28;20027;-75
2023/07/25 09:20:50;;;;;;;15.27;10.88;;;;;;;-140.66;100.00;55571.53;5110209;28;20498;-75
2023/07/25 09:23:36;;;;;;;23.50;11.57;;;;;;;-140.66;100.00;55571.53;5127335;28;20042;-75
2023/07/25 09:26:24;;;;;;;18.25;11.73;;;;;;;-140.66;100.00;55571.53;5130421;28;20104;-75
2023/07/25 09:29:10;;;;;;;16.73;10.50;;;;;;;-140.66;100.00;55571.53;5105301;28;20524;-77
2023/07/25 09:31:55;;;;;;;21.13;11.65;;;;;;;-140.66;100.00;55571.53;5121636;28;20019;-75
2023/07/25 09:34:43;;;;;;;21.85;12.57;;;;;;;-140.66;100.00;55571.53;5122043;28;20031;-75
2023/07/25 09:37:29;;;;;;;18.52;10.77;;;;;;;-140.66;100.00;55571.53;5122818;28;20035;-75
2023/07/25 09:40:14;;;;;;;17.08;11.15;;;;;;;-140.66;100.00;55571.53;5110922;28;20104;-75
2023/07/25 09:43:00;;;;;;;16.30;11.05;;;;;;;-140.66;100.00;55571.53;5106302;28;20565;-77
2023/07/25 09:45:46;;;;;;;14.68;11.23;;;;;;;-140.66;100.00;55571.53;5121240;28;20410;-76
2023/07/25 09:48:32;;;;;;;17.88;10.93;;;;;;;-140.66;100.00;55571.53;5119915;28;20051;-76
2023/07/25 09:51:18;;;;;;;16.60;10.93;;;;;;;-140.66;100.00;55571.53;5120913;28;20058;-76
2023/07/25 09:54:07;;;;;;;17.67;12.07;;;;;;;-140.66;100.00;55571.53;5121420;28;20032;-76
2023/07/25 09:56:53;;;;;;;15.02;10.93;;;;;;;-140.66;100.00;55571.53;5103416;28;20031;-75
2023/07/25 09:59:39;;;;;;;20.63;11.80;;;;;;;-140.66;100.00;55571.53;5117601;28;20023;-75
2023/07/25 10:02:25;;;;;;;19.48;11.32;;;;;;;-140.66;100.00;55571.53;5117068;28;20099;-76
2023/07/25 10:05:12;;;;;;;17.27;11.73;;;;;;;-140.66;100.00;55571.53;5117370;28;20066;-76
2023/07/25 10:07:59;;;;;;;20.98;11.48;;;;;;;-140.66;100.00;55571.53;5116149;28;20031;-75
2023/07/25 10:10:45;;;;;;;18.08;11.48;;;;;;;-140.66;100.00;55571.53;5120448;28;20047;-76
2023/07/25 10:13:34;;;;;;;14.95;10.30;;;;;;;-140.66;100.00;55571.53;5122565;28;20033;-76
2023/07/25 10:16:21;;;;;;;17.25;11.23;;;;;;;-140.66;100.00;55571.53;5122347;28;20491;-75
2023/07/25 10:19:07;;;;;;;26.17;11.57;;;;;;;-140.66;100.00;55571.53;5123109;28;20023;-76
2023/07/25 10:21:53;;;;;;;15.77;11.00;;;;;;;-140.66;100.00;55571.53;5119182;28;20060;-75
2023/07/25 10:24:39;;;;;;;18.85;10.85;;;;;;;-140.66;100.00;55571.53;5121495;28;20032;-77
2023/07/25 10:27:25;;;;;;;17.52;10.68;;;;;;;-140.66;100.00;55571.53;5110253;28;20038;-75
2023/07/25 10:30:25;;;;;;;16.08;11.25;;;;;;;-140.66;100.00;55571.53;5126259;28;20028;-75
2023/07/25 10:33:13;;;;;;;20.92;11.50;;;;;;;-140.66;100.00;55571.53;5126589;28;20019;-74
2023/07/25 10:35:59;;;;;;;14.55;9.93;;;;;;;-140.66;100.00;55571.53;5121385;28;20486;-75
2023/07/25 10:38:45;;;;;;;16.73;10.50;;;;;;;-140.66;100.00;55571.53;5120668;28;20464;-76
2023/07/25 10:41:31;;;;;;;15.98;10.02;;;;;;;-140.66;100.00;55571.53;5119971;28;20028;-76
2023/07/25 10:44:35;;;;;;;15.05;9.63;;;;;;;-140.66;100.00;55571.53;5117600;28;20073;-75
2023/07/25 10:47:44;;;;;;;15.90;10.23;;;;;;;-140.66;100.00;55571.53;5115525;28;20456;-75
2023/07/25 10:50:45;;;;;;;16.00;10.55;;;;;;;-140.66;100.00;55571.53;5119886;28;20032;-75
2023/07/25 10:53:31;;;;;;;14.05;9.93;;;;;;;-140.66;100.00;55571.53;5106931;28;20095;-76
2023/07/25 10:56:16;;;;;;;18.40;10.50;;;;;;;-140.66;100.00;55571.53;5123678;28;20405;-76
2023/07/25 10:59:02;;;;;;;18.90;9.27;;;;;;;-140.66;100.00;55571.53;5116473;28;20042;-76
2023/07/25 11:01:50;;;;;;;18.50;10.05;;;;;;;-140.66;100.00;55571.53;5119293;28;20019;-76
2023/07/25 11:04:36;;;;;;;18.05;9.60;;;;;;;-140.66;100.00;55571.53;5127152;28;20031;-76
2023/07/25 11:07:22;;;;;;;18.10;9.95;;;;;;;-140.66;100.00;55571.53;5112108;28;20398;-75
2023/07/25 11:10:07;;;;;;;16.10;9.98;;;;;;;-140.66;100.00;55571.53;5120305;28;20435;-76
2023/07/25 11:12:55;;;;;;;18.98;10.25;;;;;;;-140.66;100.00;55571.53;5120992;28;20035;-75
2023/07/25 11:15:41;;;;;;;14.38;9.43;;;;;;;-140.66;100.00;55571.53;5117389;28;20031;-76
2023/07/25 11:18:27;;;;;;;18.02;9.43;;;;;;;-140.66;100.00;55571.53;5104890;28;20024;-76
2023/07/25 11:21:13;;;;;;;16.25;9.38;;;;;;;-140.66;100.00;55571.53;5118193;28;20058;-75
2023/07/25 11:24:04;;;;;;;19.88;9.15;;;;;;;-140.66;100.00;55571.53;5120067;28;20105;-74
2023/07/25 11:26:50;;;;;;;18.67;9.48;;;;;;;-140.66;100.00;55571.53;5119924;28;20110;-75
2023/07/25 11:29:35;;;;;;;16.67;9.90;;;;;;;-140.66;100.00;55571.53;5121102;28;20112;-75
2023/07/25 11:32:21;;;;;;;14.65;9.43;;;;;;;-140.66;100.00;55571.53;5119585;28;20015;-76
2023/07/25 11:35:07;;;;;;;14.50;9.02;;;;;;;-140.66;100.00;55571.53;5107656;28;20030;-74
2023/07/25 11:37:59;;;;;;;13.27;8.93;;;;;;;-140.66;100.00;55571.53;5106024;28;20098;-74
2023/07/25 11:40:54;;;;;;;13.15;9.18;;;;;;;-140.66;100.00;55571.53;5122958;28;20367;-76
2023/07/25 11:43:40;;;;;;;15.13;8.38;;;;;;;-140.66;100.00;55571.53;5124187;28;20410;-75
2023/07/25 11:46:27;;;;;;;15.65;8.88;;;;;;;-140.66;100.00;55571.53;5121857;28;20043;-74
2023/07/25 11:49:14;;;;;;;14.15;8.60;;;;;;;-140.66;100.00;55571.53;5119243;28;20032;-75
2023/07/25 11:52:00;;;;;;;15.27;8.38;;;;;;;-140.66;100.00;55571.53;5117056;28;20496;-75
2023/07/25 11:54:46;;;;;;;20.70;9.02;;;;;;;-140.66;100.00;55571.53;5115007;28;20452;-76
2023/07/25 11:57:32;;;;;;;16.23;9.05;;;;;;;-140.66;100.00;55571.53;5115414;28;20020;-77
2023/07/25 12:00:18;;;;;;;15.55;8.50;;;;;;;-140.66;100.00;55571.53;5116105;28;20020;-76
2023/07/25 12:03:15;;;;;;;13.95;8.65;;;;;;;-140.66;100.00;55571.53;5118397;28;20035;-77
2023/07/25 12:06:01;;;;;;;15.55;8.98;;;;;;;-140.66;100.00;55571.53;5120770;28;20416;-76
2023/07/25 12:08:47;;;;;;;17.20;8.73;;;;;;;-140.66;100.00;55571.53;5122871;28;20035;-75
2023/07/25 12:11:42;;;;;;;18.58;7.97;;;;;;;-140.66;100.00;55571.53;5119834;28;20077;-75
2023/07/25 12:14:28;;;;;;;14.38;7.82;;;;;;;-140.66;100.00;55571.53;5119041;28;20093;-75
2023/07/25 12:17:14;;;;;;;13.45;8.52;;;;;;;-140.66;100.00;55571.53;5120782;28;20098;-75
2023/07/25 12:20:00;;;;;;;15.90;8.40;;;;;;;-140.66;100.00;55571.53;5119643;28;20047;-74
2023/07/25 12:22:47;;;;;;;12.52;7.88;;;;;;;-140.66;100.00;55571.53;5104896;28;20024;-76